sensor_id;sensor_type;location;lat;lon;timestamp;temperature;humidity
13960;DHT22;7052;51.050;3.716;2023-02-15T00:00:01;6.20;99.90
13960;DHT22;7052;51.050;3.716;2023-02-15T00:02:28;6.10;99.90
13960;DHT22;7052;51.050;3.716;2023-02-15T00:04:56;6.10;99.90
13960;DHT22;7052;51.050;3.716;2023-02-15T00:07:24;6.10;99.90
13960;DHT22;7052;51.050;3.716;2023-02-15T00:09:53;6.00;99.90
13960;DHT22;7052;51.050;3.716;2023-02-15T00:12:20;5.90;99.90
13960;DHT22;7052;51.050;3.716;2023-02-15T00:14:48;5.90;99.90
13960;DHT22;7052;51.050;3.716;2023-02-15T00:17:16;5.90;99.90
13960;DHT22;7052;51.050;3.716;2023-02-15T00:19:43;5.80;99.90
13960;DHT22;7052;51.050;3.716;2023-02-15T00:22:11;5.80;99.90
13960;DHT22;7052;51.050;3.716;2023-02-15T00:24:39;5.70;99.90
13960;DHT22;7052;51.050;3.716;2023-02-15T00:27:06;5.70;99.90
13960;DHT22;7052;51.050;3.716;2023-02-15T00:29:35;5.60;99.90
13960;DHT22;7052;51.050;3.716;2023-02-15T00:32:02;5.60;99.90
13960;DHT22;7052;51.050;3.716;2023-02-15T00:34:29;5.50;99.90
13960;DHT22;7052;51.050;3.716;2023-02-15T00:36:57;5.50;99.90
13960;DHT22;7052;51.050;3.716;2023-02-15T00:39:25;5.50;99.90
13960;DHT22;7052;51.050;3.716;2023-02-15T00:41:52;5.40;99.90
13960;DHT22;7052;51.050;3.716;2023-02-15T00:44:19;5.40;99.90
13960;DHT22;7052;51.050;3.716;2023-02-15T00:46:47;5.40;99.90
13960;DHT22;7052;51.050;3.716;2023-02-15T00:49:14;5.40;99.90
13960;DHT22;7052;51.050;3.716;2023-02-15T00:51:41;5.40;99.90
13960;DHT22;7052;51.050;3.716;2023-02-15T00:54:08;5.40;99.90
13960;DHT22;7052;51.050;3.716;2023-02-15T00:56:36;5.40;99.90
13960;DHT22;7052;51.050;3.716;2023-02-15T00:59:05;5.40;99.90
13960;DHT22;7052;51.050;3.716;2023-02-15T01:01:32;5.30;99.90
13960;DHT22;7052;51.050;3.716;2023-02-15T01:03:59;5.30;99.90
13960;DHT22;7052;51.050;3.716;2023-02-15T01:06:26;5.30;99.90
13960;DHT22;7052;51.050;3.716;2023-02-15T01:08:54;5.30;99.90
13960;DHT22;7052;51.050;3.716;2023-02-15T01:11:22;5.30;99.90
13960;DHT22;7052;51.050;3.716;2023-02-15T01:13:53;5.20;99.90
13960;DHT22;7052;51.050;3.716;2023-02-15T01:16:20;5.20;99.90
13960;DHT22;7052;51.050;3.716;2023-02-15T01:18:54;5.20;99.90
13960;DHT22;7052;51.050;3.716;2023-02-15T01:21:24;5.20;99.90
13960;DHT22;7052;51.050;3.716;2023-02-15T01:23:51;5.20;99.90
13960;DHT22;7052;51.050;3.716;2023-02-15T01:26:19;5.20;99.90
13960;DHT22;7052;51.050;3.716;2023-02-15T01:28:46;5.30;99.90
13960;DHT22;7052;51.050;3.716;2023-02-15T01:31:17;5.40;99.90
13960;DHT22;7052;51.050;3.716;2023-02-15T01:33:46;5.30;99.90
13960;DHT22;7052;51.050;3.716;2023-02-15T01:36:14;5.30;99.90
13960;DHT22;7052;51.050;3.716;2023-02-15T01:38:43;5.30;99.90
13960;DHT22;7052;51.050;3.716;2023-02-15T01:41:12;5.20;99.90
13960;DHT22;7052;51.050;3.716;2023-02-15T01:43:54;5.20;99.90
13960;DHT22;7052;51.050;3.716;2023-02-15T01:46:27;5.20;99.90
13960;DHT22;7052;51.050;3.716;2023-02-15T01:49:00;5.20;99.90
13960;DHT22;7052;51.050;3.716;2023-02-15T01:51:30;5.20;99.90
13960;DHT22;7052;51.050;3.716;2023-02-15T01:54:05;5.20;99.90
13960;DHT22;7052;51.050;3.716;2023-02-15T01:56:37;5.10;99.90
13960;DHT22;7052;51.050;3.716;2023-02-15T01:59:07;5.10;99.90
13960;DHT22;7052;51.050;3.716;2023-02-15T02:01:37;5.10;99.90
13960;DHT22;7052;51.050;3.716;2023-02-15T02:04:09;5.10;99.90
13960;DHT22;7052;51.050;3.716;2023-02-15T02:06:39;5.10;99.90
13960;DHT22;7052;51.050;3.716;2023-02-15T02:09:06;5.10;99.90
13960;DHT22;7052;51.050;3.716;2023-02-15T02:11:34;5.10;99.90
13960;DHT22;7052;51.050;3.716;2023-02-15T02:14:01;5.10;99.90
13960;DHT22;7052;51.050;3.716;2023-02-15T02:16:33;5.10;99.90
13960;DHT22;7052;51.050;3.716;2023-02-15T02:19:34;5.10;99.90
13960;DHT22;7052;51.050;3.716;2023-02-15T02:25:38;5.10;99.90
13960;DHT22;7052;51.050;3.716;2023-02-15T02:28:24;5.10;99.90
13960;DHT22;7052;51.050;3.716;2023-02-15T02:31:17;5.00;99.90
13960;DHT22;7052;51.050;3.716;2023-02-15T02:33:59;5.00;99.90
13960;DHT22;7052;51.050;3.716;2023-02-15T02:36:34;5.00;99.90
13960;DHT22;7052;51.050;3.716;2023-02-15T02:39:15;5.00;99.90
13960;DHT22;7052;51.050;3.716;2023-02-15T02:41:55;5.00;99.90
13960;DHT22;7052;51.050;3.716;2023-02-15T02:44:38;5.10;99.90
13960;DHT22;7052;51.050;3.716;2023-02-15T02:47:13;5.10;99.90
13960;DHT22;7052;51.050;3.716;2023-02-15T02:49:44;5.10;99.90
13960;DHT22;7052;51.050;3.716;2023-02-15T02:52:35;5.10;99.90
13960;DHT22;7052;51.050;3.716;2023-02-15T02:55:04;5.00;99.90
13960;DHT22;7052;51.050;3.716;2023-02-15T02:57:32;5.10;99.90
13960;DHT22;7052;51.050;3.716;2023-02-15T03:00:05;5.10;99.90
13960;DHT22;7052;51.050;3.716;2023-02-15T03:02:39;5.10;99.90
13960;DHT22;7052;51.050;3.716;2023-02-15T03:05:13;5.00;99.90
13960;DHT22;7052;51.050;3.716;2023-02-15T03:07:44;5.10;99.90
13960;DHT22;7052;51.050;3.716;2023-02-15T03:10:14;5.10;99.90
13960;DHT22;7052;51.050;3.716;2023-02-15T03:12:42;5.00;99.90
13960;DHT22;7052;51.050;3.716;2023-02-15T03:15:11;5.00;99.90
13960;DHT22;7052;51.050;3.716;2023-02-15T03:17:43;5.00;99.90
13960;DHT22;7052;51.050;3.716;2023-02-15T03:20:17;5.00;99.90
13960;DHT22;7052;51.050;3.716;2023-02-15T03:22:49;5.00;99.90
13960;DHT22;7052;51.050;3.716;2023-02-15T03:25:20;5.00;99.90
13960;DHT22;7052;51.050;3.716;2023-02-15T03:27:51;4.90;99.90
13960;DHT22;7052;51.050;3.716;2023-02-15T03:30:22;4.90;99.90
13960;DHT22;7052;51.050;3.716;2023-02-15T03:32:51;4.90;99.90
13960;DHT22;7052;51.050;3.716;2023-02-15T03:35:22;4.80;99.90
13960;DHT22;7052;51.050;3.716;2023-02-15T03:37:53;4.80;99.90
13960;DHT22;7052;51.050;3.716;2023-02-15T03:40:24;4.80;99.90
13960;DHT22;7052;51.050;3.716;2023-02-15T03:43:14;4.80;99.90
13960;DHT22;7052;51.050;3.716;2023-02-15T03:45:47;4.80;99.90
13960;DHT22;7052;51.050;3.716;2023-02-15T03:48:24;4.70;99.90
13960;DHT22;7052;51.050;3.716;2023-02-15T03:50:57;4.70;99.90
13960;DHT22;7052;51.050;3.716;2023-02-15T03:53:44;4.70;99.90
13960;DHT22;7052;51.050;3.716;2023-02-15T03:56:13;4.60;99.90
13960;DHT22;7052;51.050;3.716;2023-02-15T03:58:40;4.60;99.90
13960;DHT22;7052;51.050;3.716;2023-02-15T04:01:27;4.60;99.90
13960;DHT22;7052;51.050;3.716;2023-02-15T04:04:19;4.60;99.90
13960;DHT22;7052;51.050;3.716;2023-02-15T04:06:49;4.60;99.90
13960;DHT22;7052;51.050;3.716;2023-02-15T04:09:16;4.60;99.90
13960;DHT22;7052;51.050;3.716;2023-02-15T04:12:00;4.60;99.90
13960;DHT22;7052;51.050;3.716;2023-02-15T04:14:30;4.60;99.90
13960;DHT22;7052;51.050;3.716;2023-02-15T04:17:14;4.70;99.90
13960;DHT22;7052;51.050;3.716;2023-02-15T04:19:40;4.60;99.90
13960;DHT22;7052;51.050;3.716;2023-02-15T04:22:26;4.60;99.90
13960;DHT22;7052;51.050;3.716;2023-02-15T04:25:11;4.70;99.90
13960;DHT22;7052;51.050;3.716;2023-02-15T04:27:39;4.70;99.90
13960;DHT22;7052;51.050;3.716;2023-02-15T04:30:09;4.70;99.90
13960;DHT22;7052;51.050;3.716;2023-02-15T04:32:38;4.70;99.90
13960;DHT22;7052;51.050;3.716;2023-02-15T04:35:06;4.70;99.90
13960;DHT22;7052;51.050;3.716;2023-02-15T04:37:34;4.80;99.90
13960;DHT22;7052;51.050;3.716;2023-02-15T04:40:01;4.80;99.90
13960;DHT22;7052;51.050;3.716;2023-02-15T04:42:33;4.80;99.90
13960;DHT22;7052;51.050;3.716;2023-02-15T04:44:59;4.80;99.90
13960;DHT22;7052;51.050;3.716;2023-02-15T04:47:27;4.80;99.90
13960;DHT22;7052;51.050;3.716;2023-02-15T04:49:54;4.80;99.90
13960;DHT22;7052;51.050;3.716;2023-02-15T04:52:24;4.80;99.90
13960;DHT22;7052;51.050;3.716;2023-02-15T04:54:54;4.80;99.90
13960;DHT22;7052;51.050;3.716;2023-02-15T04:57:21;4.80;99.90
13960;DHT22;7052;51.050;3.716;2023-02-15T04:59:49;4.80;99.90
13960;DHT22;7052;51.050;3.716;2023-02-15T05:02:17;4.80;99.90
13960;DHT22;7052;51.050;3.716;2023-02-15T05:04:47;4.80;99.90
13960;DHT22;7052;51.050;3.716;2023-02-15T05:07:14;4.80;99.90
13960;DHT22;7052;51.050;3.716;2023-02-15T05:09:41;4.80;99.90
13960;DHT22;7052;51.050;3.716;2023-02-15T05:12:09;4.80;99.90
13960;DHT22;7052;51.050;3.716;2023-02-15T05:14:37;4.80;99.90
13960;DHT22;7052;51.050;3.716;2023-02-15T05:17:04;4.80;99.90
13960;DHT22;7052;51.050;3.716;2023-02-15T05:19:31;4.80;99.90
13960;DHT22;7052;51.050;3.716;2023-02-15T05:21:58;4.80;99.90
13960;DHT22;7052;51.050;3.716;2023-02-15T05:24:25;4.80;99.90
13960;DHT22;7052;51.050;3.716;2023-02-15T05:27:12;4.80;99.90
13960;DHT22;7052;51.050;3.716;2023-02-15T05:29:57;4.80;99.90
13960;DHT22;7052;51.050;3.716;2023-02-15T05:32:24;4.80;99.90
13960;DHT22;7052;51.050;3.716;2023-02-15T05:34:51;4.80;99.90
13960;DHT22;7052;51.050;3.716;2023-02-15T05:37:18;4.80;99.90
13960;DHT22;7052;51.050;3.716;2023-02-15T05:39:45;4.80;99.90
13960;DHT22;7052;51.050;3.716;2023-02-15T05:42:13;4.90;99.90
13960;DHT22;7052;51.050;3.716;2023-02-15T05:44:43;4.70;99.90
13960;DHT22;7052;51.050;3.716;2023-02-15T05:47:16;4.70;99.90
13960;DHT22;7052;51.050;3.716;2023-02-15T05:49:44;4.70;99.90
13960;DHT22;7052;51.050;3.716;2023-02-15T05:52:11;4.70;99.90
13960;DHT22;7052;51.050;3.716;2023-02-15T05:54:38;4.70;99.90
13960;DHT22;7052;51.050;3.716;2023-02-15T05:57:04;4.70;99.90
13960;DHT22;7052;51.050;3.716;2023-02-15T05:59:34;4.70;99.90
13960;DHT22;7052;51.050;3.716;2023-02-15T06:02:01;4.70;99.90
13960;DHT22;7052;51.050;3.716;2023-02-15T06:04:30;4.70;99.90
13960;DHT22;7052;51.050;3.716;2023-02-15T06:06:57;4.70;99.90
13960;DHT22;7052;51.050;3.716;2023-02-15T06:09:24;4.60;99.90
13960;DHT22;7052;51.050;3.716;2023-02-15T06:11:51;4.70;99.90
13960;DHT22;7052;51.050;3.716;2023-02-15T06:14:18;4.70;99.90
13960;DHT22;7052;51.050;3.716;2023-02-15T06:16:47;4.70;99.90
13960;DHT22;7052;51.050;3.716;2023-02-15T06:19:15;4.70;99.90
13960;DHT22;7052;51.050;3.716;2023-02-15T06:21:44;4.70;99.90
13960;DHT22;7052;51.050;3.716;2023-02-15T06:24:11;4.70;99.90
13960;DHT22;7052;51.050;3.716;2023-02-15T06:26:40;4.70;99.90
13960;DHT22;7052;51.050;3.716;2023-02-15T06:29:06;4.70;99.90
13960;DHT22;7052;51.050;3.716;2023-02-15T06:31:35;4.70;99.90
13960;DHT22;7052;51.050;3.716;2023-02-15T06:34:06;4.70;99.90
13960;DHT22;7052;51.050;3.716;2023-02-15T06:36:33;4.70;99.90
13960;DHT22;7052;51.050;3.716;2023-02-15T06:39:00;4.70;99.90
13960;DHT22;7052;51.050;3.716;2023-02-15T06:41:28;4.80;99.90
13960;DHT22;7052;51.050;3.716;2023-02-15T06:43:55;4.70;99.90
13960;DHT22;7052;51.050;3.716;2023-02-15T06:46:21;4.80;99.90
13960;DHT22;7052;51.050;3.716;2023-02-15T06:48:48;4.70;99.90
13960;DHT22;7052;51.050;3.716;2023-02-15T06:51:16;4.70;99.90
13960;DHT22;7052;51.050;3.716;2023-02-15T06:53:45;4.80;99.90
13960;DHT22;7052;51.050;3.716;2023-02-15T06:56:12;4.70;99.90
13960;DHT22;7052;51.050;3.716;2023-02-15T06:58:40;4.70;99.90
13960;DHT22;7052;51.050;3.716;2023-02-15T07:01:07;4.70;99.90
13960;DHT22;7052;51.050;3.716;2023-02-15T07:03:35;4.70;99.90
13960;DHT22;7052;51.050;3.716;2023-02-15T07:06:04;4.70;99.90
13960;DHT22;7052;51.050;3.716;2023-02-15T07:08:39;4.70;99.90
13960;DHT22;7052;51.050;3.716;2023-02-15T07:11:06;4.70;99.90
13960;DHT22;7052;51.050;3.716;2023-02-15T07:13:53;4.70;99.90
13960;DHT22;7052;51.050;3.716;2023-02-15T07:16:20;4.80;99.90
13960;DHT22;7052;51.050;3.716;2023-02-15T07:18:48;4.80;99.90
13960;DHT22;7052;51.050;3.716;2023-02-15T07:21:15;4.80;99.90
13960;DHT22;7052;51.050;3.716;2023-02-15T07:23:43;4.80;99.90
13960;DHT22;7052;51.050;3.716;2023-02-15T07:26:11;4.80;99.90
13960;DHT22;7052;51.050;3.716;2023-02-15T07:28:39;4.90;99.90
13960;DHT22;7052;51.050;3.716;2023-02-15T07:31:05;4.90;99.90
13960;DHT22;7052;51.050;3.716;2023-02-15T07:33:34;4.90;99.90
13960;DHT22;7052;51.050;3.716;2023-02-15T07:36:03;4.90;99.90
13960;DHT22;7052;51.050;3.716;2023-02-15T07:38:33;4.90;99.90
13960;DHT22;7052;51.050;3.716;2023-02-15T07:41:03;4.90;99.90
13960;DHT22;7052;51.050;3.716;2023-02-15T07:43:32;5.00;99.90
13960;DHT22;7052;51.050;3.716;2023-02-15T07:45:59;5.00;99.90
13960;DHT22;7052;51.050;3.716;2023-02-15T07:48:27;5.10;99.90
13960;DHT22;7052;51.050;3.716;2023-02-15T07:50:54;5.10;99.90
13960;DHT22;7052;51.050;3.716;2023-02-15T07:53:21;5.20;99.90
13960;DHT22;7052;51.050;3.716;2023-02-15T07:55:48;5.20;99.90
13960;DHT22;7052;51.050;3.716;2023-02-15T07:58:17;5.30;99.90
13960;DHT22;7052;51.050;3.716;2023-02-15T08:00:45;5.30;99.90
13960;DHT22;7052;51.050;3.716;2023-02-15T08:03:27;5.40;99.90
13960;DHT22;7052;51.050;3.716;2023-02-15T08:05:56;5.40;99.90
13960;DHT22;7052;51.050;3.716;2023-02-15T08:08:24;5.50;99.90
13960;DHT22;7052;51.050;3.716;2023-02-15T08:10:58;5.50;99.90
13960;DHT22;7052;51.050;3.716;2023-02-15T08:13:46;5.60;99.90
13960;DHT22;7052;51.050;3.716;2023-02-15T08:16:20;5.70;99.90
13960;DHT22;7052;51.050;3.716;2023-02-15T08:18:47;5.80;99.90
13960;DHT22;7052;51.050;3.716;2023-02-15T08:21:14;5.90;99.90
13960;DHT22;7052;51.050;3.716;2023-02-15T08:23:41;6.00;99.90
13960;DHT22;7052;51.050;3.716;2023-02-15T08:26:09;6.00;99.90
13960;DHT22;7052;51.050;3.716;2023-02-15T08:28:36;6.10;99.90
13960;DHT22;7052;51.050;3.716;2023-02-15T08:31:09;6.10;99.90
13960;DHT22;7052;51.050;3.716;2023-02-15T08:33:37;6.20;99.90
13960;DHT22;7052;51.050;3.716;2023-02-15T08:36:06;6.20;99.90
13960;DHT22;7052;51.050;3.716;2023-02-15T08:38:34;6.30;99.90
13960;DHT22;7052;51.050;3.716;2023-02-15T08:41:10;6.30;99.90
13960;DHT22;7052;51.050;3.716;2023-02-15T08:43:38;6.30;99.90
13960;DHT22;7052;51.050;3.716;2023-02-15T08:46:07;6.40;99.90
13960;DHT22;7052;51.050;3.716;2023-02-15T08:48:37;6.50;99.90
13960;DHT22;7052;51.050;3.716;2023-02-15T08:51:05;6.60;99.90
13960;DHT22;7052;51.050;3.716;2023-02-15T08:53:33;6.60;99.90
13960;DHT22;7052;51.050;3.716;2023-02-15T08:56:01;7.10;99.90
13960;DHT22;7052;51.050;3.716;2023-02-15T08:58:28;6.70;99.90
13960;DHT22;7052;51.050;3.716;2023-02-15T09:00:57;6.80;99.90
13960;DHT22;7052;51.050;3.716;2023-02-15T09:03:31;6.90;99.90
13960;DHT22;7052;51.050;3.716;2023-02-15T09:05:59;7.00;99.90
13960;DHT22;7052;51.050;3.716;2023-02-15T09:08:26;7.10;99.90
13960;DHT22;7052;51.050;3.716;2023-02-15T09:10:53;7.10;99.90
13960;DHT22;7052;51.050;3.716;2023-02-15T09:13:21;7.20;99.90
13960;DHT22;7052;51.050;3.716;2023-02-15T09:15:48;7.30;99.90
13960;DHT22;7052;51.050;3.716;2023-02-15T09:18:17;7.30;99.90
13960;DHT22;7052;51.050;3.716;2023-02-15T09:20:46;7.30;99.90
13960;DHT22;7052;51.050;3.716;2023-02-15T09:23:14;7.40;99.90
13960;DHT22;7052;51.050;3.716;2023-02-15T09:25:41;7.50;99.90
13960;DHT22;7052;51.050;3.716;2023-02-15T09:28:09;7.50;99.90
13960;DHT22;7052;51.050;3.716;2023-02-15T09:30:35;7.50;99.90
13960;DHT22;7052;51.050;3.716;2023-02-15T09:33:06;7.60;99.90
13960;DHT22;7052;51.050;3.716;2023-02-15T09:35:36;7.60;99.90
13960;DHT22;7052;51.050;3.716;2023-02-15T09:38:06;7.60;99.90
13960;DHT22;7052;51.050;3.716;2023-02-15T09:40:38;7.70;99.90
13960;DHT22;7052;51.050;3.716;2023-02-15T09:43:34;7.70;99.90
13960;DHT22;7052;51.050;3.716;2023-02-15T09:46:21;7.80;99.90
13960;DHT22;7052;51.050;3.716;2023-02-15T09:48:59;7.80;99.90
13960;DHT22;7052;51.050;3.716;2023-02-15T09:54:42;7.90;99.90
13960;DHT22;7052;51.050;3.716;2023-02-15T09:57:19;7.90;99.90
13960;DHT22;7052;51.050;3.716;2023-02-15T09:59:56;8.00;99.90
13960;DHT22;7052;51.050;3.716;2023-02-15T10:02:51;8.10;99.90
13960;DHT22;7052;51.050;3.716;2023-02-15T10:05:35;8.10;99.90
13960;DHT22;7052;51.050;3.716;2023-02-15T10:08:22;8.20;99.90
13960;DHT22;7052;51.050;3.716;2023-02-15T10:10:57;8.30;99.90
13960;DHT22;7052;51.050;3.716;2023-02-15T10:13:53;8.30;99.90
13960;DHT22;7052;51.050;3.716;2023-02-15T10:16:29;8.30;99.90
13960;DHT22;7052;51.050;3.716;2023-02-15T10:19:06;8.40;99.90
13960;DHT22;7052;51.050;3.716;2023-02-15T10:21:51;8.40;99.90
13960;DHT22;7052;51.050;3.716;2023-02-15T10:27:15;8.60;99.90
13960;DHT22;7052;51.050;3.716;2023-02-15T10:29:52;8.60;99.90
13960;DHT22;7052;51.050;3.716;2023-02-15T10:32:23;8.70;99.90
13960;DHT22;7052;51.050;3.716;2023-02-15T10:34:54;8.70;99.90
13960;DHT22;7052;51.050;3.716;2023-02-15T10:37:49;8.80;99.90
13960;DHT22;7052;51.050;3.716;2023-02-15T10:40:28;8.80;99.90
13960;DHT22;7052;51.050;3.716;2023-02-15T10:43:13;8.80;99.90
13960;DHT22;7052;51.050;3.716;2023-02-15T10:45:51;8.90;99.90
13960;DHT22;7052;51.050;3.716;2023-02-15T10:48:34;9.00;99.90
13960;DHT22;7052;51.050;3.716;2023-02-15T10:51:08;9.10;99.90
13960;DHT22;7052;51.050;3.716;2023-02-15T10:54:12;9.10;99.90
13960;DHT22;7052;51.050;3.716;2023-02-15T10:56:50;9.20;99.90
13960;DHT22;7052;51.050;3.716;2023-02-15T10:59:37;9.20;99.90
13960;DHT22;7052;51.050;3.716;2023-02-15T11:02:18;9.30;99.90
13960;DHT22;7052;51.050;3.716;2023-02-15T11:04:55;9.30;99.90
13960;DHT22;7052;51.050;3.716;2023-02-15T11:07:32;9.40;99.90
13960;DHT22;7052;51.050;3.716;2023-02-15T11:10:11;9.40;99.90
13960;DHT22;7052;51.050;3.716;2023-02-15T11:12:46;9.50;99.90
13960;DHT22;7052;51.050;3.716;2023-02-15T11:15:19;9.50;99.90
13960;DHT22;7052;51.050;3.716;2023-02-15T11:17:53;9.60;99.90
13960;DHT22;7052;51.050;3.716;2023-02-15T11:20:27;9.60;99.90
13960;DHT22;7052;51.050;3.716;2023-02-15T11:22:55;9.60;99.90
13960;DHT22;7052;51.050;3.716;2023-02-15T11:25:25;9.70;99.90
13960;DHT22;7052;51.050;3.716;2023-02-15T11:27:55;9.80;99.90
13960;DHT22;7052;51.050;3.716;2023-02-15T11:30:26;9.90;99.90
13960;DHT22;7052;51.050;3.716;2023-02-15T11:32:57;10.20;99.90
13960;DHT22;7052;51.050;3.716;2023-02-15T11:35:28;10.40;99.90
13960;DHT22;7052;51.050;3.716;2023-02-15T11:38:03;10.50;99.90
13960;DHT22;7052;51.050;3.716;2023-02-15T11:40:35;10.60;99.90
13960;DHT22;7052;51.050;3.716;2023-02-15T11:43:06;10.70;99.90
13960;DHT22;7052;51.050;3.716;2023-02-15T11:45:41;10.70;99.90
13960;DHT22;7052;51.050;3.716;2023-02-15T11:48:11;10.70;99.90
13960;DHT22;7052;51.050;3.716;2023-02-15T11:50:39;10.70;99.90
13960;DHT22;7052;51.050;3.716;2023-02-15T11:53:12;10.70;99.90
13960;DHT22;7052;51.050;3.716;2023-02-15T11:55:43;10.80;99.90
13960;DHT22;7052;51.050;3.716;2023-02-15T11:58:21;10.90;99.90
13960;DHT22;7052;51.050;3.716;2023-02-15T12:00:54;11.00;99.90
13960;DHT22;7052;51.050;3.716;2023-02-15T12:03:28;11.20;99.90
13960;DHT22;7052;51.050;3.716;2023-02-15T12:06:02;11.30;99.90
13960;DHT22;7052;51.050;3.716;2023-02-15T12:08:36;11.50;99.90
13960;DHT22;7052;51.050;3.716;2023-02-15T12:11:08;11.60;99.90
13960;DHT22;7052;51.050;3.716;2023-02-15T12:13:54;11.60;99.90
13960;DHT22;7052;51.050;3.716;2023-02-15T12:16:24;11.60;99.00
13960;DHT22;7052;51.050;3.716;2023-02-15T12:18:53;11.70;98.50
13960;DHT22;7052;51.050;3.716;2023-02-15T12:21:29;11.70;98.60
13960;DHT22;7052;51.050;3.716;2023-02-15T12:24:01;11.70;98.60
13960;DHT22;7052;51.050;3.716;2023-02-15T12:26:32;11.60;98.60
13960;DHT22;7052;51.050;3.716;2023-02-15T12:29:06;11.60;98.00
13960;DHT22;7052;51.050;3.716;2023-02-15T12:31:40;11.60;98.00
13960;DHT22;7052;51.050;3.716;2023-02-15T12:34:12;11.60;97.90
13960;DHT22;7052;51.050;3.716;2023-02-15T12:36:44;11.70;97.70
13960;DHT22;7052;51.050;3.716;2023-02-15T12:39:21;11.60;98.00
13960;DHT22;7052;51.050;3.716;2023-02-15T12:42:03;11.70;98.10
13960;DHT22;7052;51.050;3.716;2023-02-15T12:44:32;11.70;97.40
13960;DHT22;7052;51.050;3.716;2023-02-15T12:47:04;11.70;97.40
13960;DHT22;7052;51.050;3.716;2023-02-15T12:49:32;11.70;97.30
13960;DHT22;7052;51.050;3.716;2023-02-15T12:52:00;11.70;97.50
13960;DHT22;7052;51.050;3.716;2023-02-15T12:54:35;11.70;97.70
13960;DHT22;7052;51.050;3.716;2023-02-15T12:57:25;11.70;97.30
13960;DHT22;7052;51.050;3.716;2023-02-15T12:59:55;11.70;97.60
13960;DHT22;7052;51.050;3.716;2023-02-15T13:02:30;11.70;97.70
13960;DHT22;7052;51.050;3.716;2023-02-15T13:05:13;11.80;97.60
13960;DHT22;7052;51.050;3.716;2023-02-15T13:07:45;11.80;96.60
13960;DHT22;7052;51.050;3.716;2023-02-15T13:10:24;11.80;97.10
13960;DHT22;7052;51.050;3.716;2023-02-15T13:12:52;11.80;97.30
13960;DHT22;7052;51.050;3.716;2023-02-15T13:15:30;11.90;97.40
13960;DHT22;7052;51.050;3.716;2023-02-15T13:18:02;11.90;97.60
13960;DHT22;7052;51.050;3.716;2023-02-15T13:20:30;11.90;98.00
13960;DHT22;7052;51.050;3.716;2023-02-15T13:23:01;11.90;98.20
13960;DHT22;7052;51.050;3.716;2023-02-15T13:25:34;11.90;98.40
13960;DHT22;7052;51.050;3.716;2023-02-15T13:28:10;11.90;98.20
13960;DHT22;7052;51.050;3.716;2023-02-15T13:30:43;11.90;98.30
13960;DHT22;7052;51.050;3.716;2023-02-15T13:33:17;11.90;98.30
13960;DHT22;7052;51.050;3.716;2023-02-15T13:35:50;11.90;98.40
13960;DHT22;7052;51.050;3.716;2023-02-15T13:38:50;11.90;98.50
13960;DHT22;7052;51.050;3.716;2023-02-15T13:41:48;11.90;98.90
13960;DHT22;7052;51.050;3.716;2023-02-15T13:44:27;12.00;99.10
13960;DHT22;7052;51.050;3.716;2023-02-15T13:47:07;12.00;99.30
13960;DHT22;7052;51.050;3.716;2023-02-15T13:49:49;12.00;99.20
13960;DHT22;7052;51.050;3.716;2023-02-15T13:52:21;12.10;98.90
13960;DHT22;7052;51.050;3.716;2023-02-15T13:55:03;12.10;98.60
13960;DHT22;7052;51.050;3.716;2023-02-15T13:57:58;12.10;98.50
13960;DHT22;7052;51.050;3.716;2023-02-15T14:00:38;12.10;98.30
13960;DHT22;7052;51.050;3.716;2023-02-15T14:06:19;12.00;98.10
13960;DHT22;7052;51.050;3.716;2023-02-15T14:09:01;12.00;98.30
13960;DHT22;7052;51.050;3.716;2023-02-15T14:11:37;12.00;98.30
13960;DHT22;7052;51.050;3.716;2023-02-15T14:14:29;12.00;98.30
13960;DHT22;7052;51.050;3.716;2023-02-15T14:17:12;12.00;98.20
13960;DHT22;7052;51.050;3.716;2023-02-15T14:19:46;12.00;98.20
13960;DHT22;7052;51.050;3.716;2023-02-15T14:22:23;12.00;98.50
13960;DHT22;7052;51.050;3.716;2023-02-15T14:25:03;12.00;98.40
13960;DHT22;7052;51.050;3.716;2023-02-15T14:27:46;12.00;98.40
13960;DHT22;7052;51.050;3.716;2023-02-15T14:30:19;12.00;98.20
13960;DHT22;7052;51.050;3.716;2023-02-15T14:32:51;12.00;97.40
13960;DHT22;7052;51.050;3.716;2023-02-15T14:35:22;12.00;97.50
13960;DHT22;7052;51.050;3.716;2023-02-15T14:37:58;11.90;97.60
13960;DHT22;7052;51.050;3.716;2023-02-15T14:40:34;11.90;97.60
13960;DHT22;7052;51.050;3.716;2023-02-15T14:43:29;11.90;97.90
13960;DHT22;7052;51.050;3.716;2023-02-15T14:46:03;11.90;98.30
13960;DHT22;7052;51.050;3.716;2023-02-15T14:48:38;11.80;98.90
13960;DHT22;7052;51.050;3.716;2023-02-15T14:51:09;11.80;99.50
13960;DHT22;7052;51.050;3.716;2023-02-15T14:53:38;11.80;99.60
13960;DHT22;7052;51.050;3.716;2023-02-15T14:56:20;11.80;99.90
13960;DHT22;7052;51.050;3.716;2023-02-15T14:59:11;11.80;99.90
13960;DHT22;7052;51.050;3.716;2023-02-15T15:01:40;11.70;99.90
13960;DHT22;7052;51.050;3.716;2023-02-15T15:04:09;11.70;99.90
13960;DHT22;7052;51.050;3.716;2023-02-15T15:06:39;11.60;99.90
13960;DHT22;7052;51.050;3.716;2023-02-15T15:09:18;11.60;99.90
13960;DHT22;7052;51.050;3.716;2023-02-15T15:11:47;11.50;99.90
13960;DHT22;7052;51.050;3.716;2023-02-15T15:14:36;11.50;99.90
13960;DHT22;7052;51.050;3.716;2023-02-15T15:17:06;11.40;99.90
13960;DHT22;7052;51.050;3.716;2023-02-15T15:20:04;11.40;99.90
13960;DHT22;7052;51.050;3.716;2023-02-15T15:22:40;11.40;99.90
13960;DHT22;7052;51.050;3.716;2023-02-15T15:25:43;11.30;99.90
13960;DHT22;7052;51.050;3.716;2023-02-15T15:31:17;11.30;99.90
13960;DHT22;7052;51.050;3.716;2023-02-15T15:34:17;11.20;99.90
13960;DHT22;7052;51.050;3.716;2023-02-15T15:37:23;11.20;99.90
13960;DHT22;7052;51.050;3.716;2023-02-15T15:40:40;11.20;99.90
13960;DHT22;7052;51.050;3.716;2023-02-15T15:46:29;11.20;99.90
13960;DHT22;7052;51.050;3.716;2023-02-15T15:49:01;11.10;99.90
13960;DHT22;7052;51.050;3.716;2023-02-15T15:51:32;11.10;99.90
13960;DHT22;7052;51.050;3.716;2023-02-15T15:54:02;11.10;99.90
13960;DHT22;7052;51.050;3.716;2023-02-15T15:56:32;11.10;99.90
13960;DHT22;7052;51.050;3.716;2023-02-15T15:59:02;11.10;99.90
13960;DHT22;7052;51.050;3.716;2023-02-15T16:01:37;11.00;99.90
13960;DHT22;7052;51.050;3.716;2023-02-15T16:04:10;11.10;99.90
13960;DHT22;7052;51.050;3.716;2023-02-15T16:06:40;11.00;99.90
13960;DHT22;7052;51.050;3.716;2023-02-15T16:09:16;10.90;99.90
13960;DHT22;7052;51.050;3.716;2023-02-15T16:11:46;10.90;99.90
13960;DHT22;7052;51.050;3.716;2023-02-15T16:14:16;10.90;99.90
13960;DHT22;7052;51.050;3.716;2023-02-15T16:16:51;10.80;99.90
13960;DHT22;7052;51.050;3.716;2023-02-15T16:19:25;10.70;99.90
13960;DHT22;7052;51.050;3.716;2023-02-15T16:22:11;10.70;99.90
13960;DHT22;7052;51.050;3.716;2023-02-15T16:25:25;10.70;99.90
13960;DHT22;7052;51.050;3.716;2023-02-15T16:28:06;10.60;99.90
13960;DHT22;7052;51.050;3.716;2023-02-15T16:30:34;10.60;99.90
13960;DHT22;7052;51.050;3.716;2023-02-15T16:33:07;10.50;99.90
13960;DHT22;7052;51.050;3.716;2023-02-15T16:35:41;10.60;99.90
13960;DHT22;7052;51.050;3.716;2023-02-15T16:38:10;10.60;99.90
13960;DHT22;7052;51.050;3.716;2023-02-15T16:40:48;10.50;99.90
13960;DHT22;7052;51.050;3.716;2023-02-15T16:43:24;10.50;99.90
13960;DHT22;7052;51.050;3.716;2023-02-15T16:45:57;10.50;99.90
13960;DHT22;7052;51.050;3.716;2023-02-15T16:48:27;10.50;99.90
13960;DHT22;7052;51.050;3.716;2023-02-15T16:50:56;10.50;99.90
13960;DHT22;7052;51.050;3.716;2023-02-15T16:53:27;10.40;99.90